| time (UTC) | temp C | wind direction | speed KPH | gust KPH | rain 1hr cm | rain 24hr cm | rain mn cm | humidity % | barometer mb |
| 20260509231407 | 21 | 263 | 4.8 | 12.9 | 0.00 | 0.00 | 0.00 | 36 | 1005.1 |
| 20260509230905 | 21 | 333 | 4.8 | 12.9 | 0.00 | 0.00 | 0.00 | 36 | 1005.0 |
| 20260509230401 | 21 | 137 | 8.0 | 11.3 | 0.00 | 0.00 | 0.00 | 37 | 1004.8 |
| 20260509225857 | 21 | 86 | 3.2 | 9.7 | 0.00 | 0.00 | 0.00 | 38 | 1004.8 |
| 20260509225354 | 21 | 297 | 4.8 | 14.5 | 0.00 | 0.00 | 0.00 | 38 | 1004.8 |
| 20260509224849 | 21 | 270 | 6.4 | 11.3 | 0.00 | 0.00 | 0.00 | 36 | 1004.8 |
| 20260509224345 | 21 | 1 | 8.0 | 16.1 | 0.00 | 0.00 | 0.00 | 33 | 1004.7 |
| 20260509223843 | 22 | 213 | 6.4 | 9.7 | 0.00 | 0.00 | 0.00 | 38 | 1004.5 |
| 20260509223340 | 21 | 307 | 8.0 | 12.9 | 0.00 | 0.00 | 0.00 | 34 | 1004.5 |
| 20260509222837 | 22 | 307 | 11.3 | 14.5 | 0.00 | 0.00 | 0.00 | 34 | 1004.6 |
| 20260509222332 | 22 | 313 | 8.0 | 11.3 | 0.00 | 0.00 | 0.00 | 34 | 1004.5 |
| 20260509221827 | 22 | 35 | 3.2 | 11.3 | 0.00 | 0.00 | 0.00 | 35 | 1004.5 |
| 20260509221325 | 22 | 82 | 6.4 | 11.3 | 0.00 | 0.00 | 0.00 | 35 | 1004.4 |
| 20260509220825 | 22 | 275 | 9.7 | 12.9 | 0.00 | 0.00 | 0.00 | 35 | 1004.3 |
| 20260509220321 | 22 | 210 | 6.4 | 11.3 | 0.00 | 0.00 | 0.00 | 36 | 1004.2 |
| 20260509215817 | 22 | 17 | 4.8 | 11.3 | 0.00 | 0.00 | 0.00 | 36 | 1004.4 |
| 20260509215314 | 22 | 58 | 4.8 | 9.7 | 0.00 | 0.00 | 0.00 | 35 | 1004.3 |
| 20260509214811 | 22 | 289 | 6.4 | 16.1 | 0.00 | 0.00 | 0.00 | 34 | 1004.1 |
| 20260509214308 | 22 | 358 | 4.8 | 8.0 | 0.00 | 0.00 | 0.00 | 34 | 1004.1 |
| 20260509213805 | 22 | 303 | 11.3 | 16.1 | 0.00 | 0.00 | 0.00 | 34 | 1004.1 |
| 20260509213300 | 22 | 1 | 4.8 | 8.0 | 0.00 | 0.00 | 0.00 | 36 | 1004.0 |
| 20260509212758 | 22 | 76 | 3.2 | 11.3 | 0.00 | 0.00 | 0.00 | 36 | 1003.7 |
| 20260509212255 | 22 | 45 | 6.4 | 11.3 | 0.00 | 0.00 | 0.00 | 37 | 1004.0 |
| 20260509211750 | 23 | 287 | 6.4 | 12.9 | 0.00 | 0.00 | 0.00 | 36 | 1003.9 |
| 20260509211247 | 23 | 325 | 8.0 | 12.9 | 0.00 | 0.00 | 0.00 | 34 | 1003.6 |
| 20260509210743 | 23 | 224 | 8.0 | 11.3 | 0.00 | 0.00 | 0.00 | 34 | 1003.7 |
| 20260509210242 | 23 | 326 | 4.8 | 9.7 | 0.00 | 0.00 | 0.00 | 36 | 1003.7 |
| 20260509205741 | 22 | 85 | 4.8 | 12.9 | 0.00 | 0.00 | 0.00 | 39 | 1003.6 |
| 20260509205236 | 23 | 301 | 11.3 | 14.5 | 0.00 | 0.00 | 0.00 | 35 | 1003.6 |
| 20260509204732 | 22 | 12 | 8.0 | 12.9 | 0.00 | 0.00 | 0.00 | 36 | 1003.6 |
| 20260509204229 | 23 | 348 | 8.0 | 12.9 | 0.00 | 0.00 | 0.00 | 34 | 1003.5 |
| 20260509203725 | 23 | 27 | 4.8 | 11.3 | 0.00 | 0.00 | 0.00 | 34 | 1003.7 |
| 20260509203223 | 23 | 295 | 4.8 | 14.5 | 0.00 | 0.00 | 0.00 | 37 | 1003.5 |
| 20260509202719 | 23 | 281 | 8.0 | 14.5 | 0.00 | 0.00 | 0.00 | 34 | 1003.5 |
| 20260509202215 | 22 | 260 | 8.0 | 11.3 | 0.00 | 0.00 | 0.00 | 38 | 1003.5 |
| 20260509201709 | 22 | 43 | 6.4 | 12.9 | 0.00 | 0.00 | 0.00 | 36 | 1003.6 |
| 20260509201207 | 22 | 26 | 4.8 | 11.3 | 0.00 | 0.00 | 0.00 | 37 | 1003.6 |
| 20260509200703 | 22 | 185 | 4.8 | 11.3 | 0.00 | 0.00 | 0.00 | 35 | 1003.5 |
| 20260509200157 | 23 | 279 | 4.8 | 11.3 | 0.00 | 0.00 | 0.00 | 34 | 1003.8 |
| 20260509195653 | 23 | 278 | 4.8 | 9.7 | 0.00 | 0.00 | 0.00 | 36 | 1003.6 |
| 20260509195149 | 21 | 267 | 6.4 | 12.9 | 0.00 | 0.00 | 0.00 | 37 | 1003.7 |
| 20260509194643 | 22 | 268 | 6.4 | 11.3 | 0.00 | 0.00 | 0.00 | 38 | 1003.6 |
| 20260509194141 | 22 | 265 | 6.4 | 11.3 | 0.00 | 0.00 | 0.00 | 36 | 1003.7 |
| 20260509193636 | 21 | 306 | 11.3 | 14.5 | 0.00 | 0.00 | 0.00 | 36 | 1003.8 |
| 20260509193132 | 21 | 290 | 11.3 | 14.5 | 0.00 | 0.00 | 0.00 | 36 | 1003.7 |
| 20260509192629 | 22 | 253 | 8.0 | 9.7 | 0.00 | 0.00 | 0.00 | 40 | 1003.6 |
| 20260509192123 | 21 | 244 | 8.0 | 9.7 | 0.00 | 0.00 | 0.00 | 40 | 1003.7 |
| 20260509191618 | 21 | 283 | 4.8 | 9.7 | 0.00 | 0.00 | 0.00 | 38 | 1003.8 |
| 20260509191115 | 21 | 216 | 6.4 | 9.7 | 0.00 | 0.00 | 0.00 | 39 | 1003.9 |
| 20260509190611 | 21 | 166 | 8.0 | 11.3 | 0.00 | 0.00 | 0.00 | 37 | 1003.8 |
| 20260509190109 | 22 | 289 | 8.0 | 12.9 | 0.00 | 0.00 | 0.00 | 36 | 1003.7 |
| 20260509185606 | 22 | 38 | 4.8 | 8.0 | 0.00 | 0.00 | 0.00 | 37 | 1003.6 |
| 20260509185102 | 21 | 263 | 8.0 | 9.7 | 0.00 | 0.00 | 0.00 | 39 | 1003.4 |
| 20260509184601 | 22 | 300 | 8.0 | 11.3 | 0.00 | 0.00 | 0.00 | 35 | 1003.6 |
| 20260509184057 | 22 | 287 | 6.4 | 12.9 | 0.00 | 0.00 | 0.00 | 33 | 1003.6 |
| 20260509183552 | 23 | 74 | 1.6 | 8.0 | 0.00 | 0.00 | 0.00 | 36 | 1003.4 |
| 20260509183048 | 22 | 132 | 3.2 | 8.0 | 0.00 | 0.00 | 0.00 | 41 | 1003.5 |
| 20260509182545 | 22 | 263 | 6.4 | 9.7 | 0.00 | 0.00 | 0.00 | 35 | 1003.4 |
| 20260509182042 | 22 | 206 | 4.8 | 8.0 | 0.00 | 0.00 | 0.00 | 38 | 1003.5 |
| 20260509181540 | 22 | 264 | 6.4 | 9.7 | 0.00 | 0.00 | 0.00 | 38 | 1003.6 |
| 20260509181037 | 21 | 91 | 4.8 | 9.7 | 0.00 | 0.00 | 0.00 | 39 | 1003.6 |
| 20260509180532 | 22 | 245 | 6.4 | 11.3 | 0.00 | 0.00 | 0.00 | 40 | 1003.5 |
| 20260509180031 | 22 | 359 | 4.8 | 8.0 | 0.00 | 0.00 | 0.00 | 38 | 1003.5 |
| 20260509175525 | 22 | 209 | 4.8 | 9.7 | 0.00 | 0.00 | 0.00 | 38 | 1003.8 |
| 20260509175023 | 21 | 229 | 3.2 | 4.8 | 0.00 | 0.00 | 0.00 | 38 | 1003.7 |
| 20260509174519 | 22 | 26 | 4.8 | 9.7 | 0.00 | 0.00 | 0.00 | 40 | 1003.9 |
| 20260509174014 | 22 | 273 | 6.4 | 8.0 | 0.00 | 0.00 | 0.00 | 41 | 1003.8 |
| 20260509173509 | 21 | 307 | 6.4 | 8.0 | 0.00 | 0.00 | 0.00 | 40 | 1003.8 |
| 20260509173005 | 21 | 275 | 8.0 | 9.7 | 0.00 | 0.00 | 0.00 | 40 | 1003.7 |
| 20260509172503 | 22 | 234 | 4.8 | 9.7 | 0.00 | 0.00 | 0.00 | 43 | 1004.0 |
| 20260509171958 | 22 | 274 | 8.0 | 9.7 | 0.00 | 0.00 | 0.00 | 39 | 1003.8 |
| 20260509171454 | 22 | 70 | 4.8 | 8.0 | 0.00 | 0.00 | 0.00 | 43 | 1003.9 |
| 20260509170951 | 22 | 135 | 3.2 | 8.0 | 0.00 | 0.00 | 0.00 | 45 | 1003.8 |
| 20260509170446 | 22 | 256 | 8.0 | 14.5 | 0.00 | 0.00 | 0.00 | 40 | 1004.0 |
| 20260509165942 | 22 | 13 | 6.4 | 9.7 | 0.00 | 0.00 | 0.00 | 42 | 1003.7 |
| 20260509165442 | 22 | 287 | 8.0 | 11.3 | 0.00 | 0.00 | 0.00 | 41 | 1003.8 |
| 20260509164937 | 22 | 192 | 3.2 | 8.0 | 0.00 | 0.00 | 0.00 | 55 | 1003.8 |
| 20260509164433 | 22 | 184 | 3.2 | 14.5 | 0.00 | 0.00 | 0.00 | 51 | 1003.9 |
| 20260509163929 | 21 | 349 | 4.8 | 8.0 | 0.00 | 0.00 | 0.00 | 51 | 1004.0 |
| 20260509163427 | 21 | 250 | 4.8 | 4.8 | 0.00 | 0.00 | 0.00 | 52 | 1003.9 |
| 20260509162926 | 21 | 101 | 1.6 | 11.3 | 0.00 | 0.00 | 0.00 | 52 | 1003.9 |
| 20260509162425 | 21 | 175 | 4.8 | 8.0 | 0.00 | 0.00 | 0.00 | 54 | 1003.9 |
| 20260509161920 | 20 | 41 | 0.0 | 1.6 | 0.00 | 0.00 | 0.00 | 60 | 1003.7 |
| 20260509161417 | 20 | 187 | 6.4 | 11.3 | 0.00 | 0.00 | 0.00 | 55 | 1003.8 |
| 20260509160913 | 20 | 78 | 3.2 | 8.0 | 0.00 | 0.00 | 0.00 | 60 | 1003.8 |
| 20260509160408 | 20 | 4 | 3.2 | 4.8 | 0.00 | 0.00 | 0.00 | 58 | 1003.9 |
| 20260509155904 | 20 | 89 | 1.6 | 9.7 | 0.00 | 0.00 | 0.00 | 61 | 1003.8 |
| 20260509155401 | 20 | 294 | 4.8 | 12.9 | 0.00 | 0.00 | 0.00 | 62 | 1004.1 |
| 20260509154857 | 19 | 147 | 3.2 | 8.0 | 0.00 | 0.00 | 0.00 | 64 | 1003.8 |
| 20260509154354 | 19 | 66 | 4.8 | 9.7 | 0.00 | 0.00 | 0.00 | 65 | 1003.9 |
| 20260509153850 | 19 | 10 | 3.2 | 4.8 | 0.00 | 0.00 | 0.00 | 65 | 1003.8 |
| 20260509153347 | 18 | 86 | 3.2 | 11.3 | 0.00 | 0.00 | 0.00 | 66 | 1004.0 |
| 20260509152844 | 18 | 260 | 3.2 | 4.8 | 0.00 | 0.00 | 0.00 | 67 | 1003.7 |
| 20260509152340 | 18 | 208 | 4.8 | 9.7 | 0.00 | 0.00 | 0.00 | 67 | 1003.9 |
| 20260509151838 | 18 | 143 | 8.0 | 12.9 | 0.00 | 0.00 | 0.00 | 67 | 1004.0 |
| 20260509151333 | 18 | 95 | 1.6 | 4.8 | 0.00 | 0.00 | 0.00 | 69 | 1003.8 |
| 20260509150832 | 17 | 180 | 3.2 | 4.8 | 0.00 | 0.00 | 0.00 | 70 | 1003.9 |
| 20260509150329 | 17 | 58 | 1.6 | 9.7 | 0.00 | 0.00 | 0.00 | 70 | 1004.0 |
| 20260509145827 | 17 | 160 | 1.6 | 8.0 | 0.00 | 0.00 | 0.00 | 72 | 1004.1 |
| 20260509145321 | 17 | 144 | 3.2 | 3.2 | 0.00 | 0.00 | 0.00 | 74 | 1004.0 |
| 20260509144818 | 17 | 185 | 6.4 | 12.9 | 0.00 | 0.00 | 0.00 | 74 | 1003.8 |
| 20260509144315 | 17 | 166 | 9.7 | 12.9 | 0.00 | 0.00 | 0.00 | 73 | 1004.0 |
| 20260509143812 | 16 | 189 | 3.2 | 12.9 | 0.00 | 0.00 | 0.00 | 75 | 1004.0 |
| 20260509143310 | 16 | 185 | 6.4 | 9.7 | 0.00 | 0.00 | 0.00 | 74 | 1004.1 |
| 20260509142806 | 16 | 128 | 4.8 | 9.7 | 0.00 | 0.00 | 0.00 | 75 | 1003.9 |
| 20260509142306 | 16 | 78 | 1.6 | 4.8 | 0.00 | 0.00 | 0.00 | 78 | 1003.9 |
| 20260509141757 | 16 | 136 | 3.2 | 12.9 | 0.00 | 0.00 | 0.00 | 77 | 1003.7 |
| 20260509141255 | 16 | 89 | 1.6 | 9.7 | 0.00 | 0.00 | 0.00 | 77 | 1003.8 |
| 20260509140751 | 15 | 184 | 4.8 | 11.3 | 0.00 | 0.00 | 0.00 | 78 | 1003.9 |
| 20260509140248 | 16 | 53 | 3.2 | 4.8 | 0.00 | 0.00 | 0.00 | 78 | 1003.9 |
| 20260509135746 | 15 | 100 | 0.0 | 4.8 | 0.00 | 0.00 | 0.00 | 79 | 1004.0 |
| 20260509135243 | 15 | 79 | 0.0 | 4.8 | 0.00 | 0.00 | 0.00 | 82 | 1004.0 |
| 20260509134740 | 15 | 190 | 4.8 | 8.0 | 0.00 | 0.00 | 0.00 | 82 | 1003.9 |
| 20260509134238 | 15 | 227 | 4.8 | 12.9 | 0.00 | 0.00 | 0.00 | 82 | 1003.7 |
| 20260509133735 | 14 | 159 | 8.0 | 9.7 | 0.00 | 0.00 | 0.00 | 83 | 1003.5 |
| 20260509133231 | 14 | 142 | 4.8 | 9.7 | 0.00 | 0.00 | 0.00 | 85 | 1003.5 |
| 20260509132730 | 13 | 165 | 6.4 | 9.7 | 0.00 | 0.00 | 0.00 | 85 | 1003.5 |
| 20260509132229 | 13 | 122 | 3.2 | 16.1 | 0.00 | 0.00 | 0.00 | 86 | 1003.6 |
| 20260509131725 | 13 | 170 | 8.0 | 11.3 | 0.00 | 0.00 | 0.00 | 86 | 1003.6 |
| 20260509131221 | 13 | 241 | 8.0 | 11.3 | 0.00 | 0.00 | 0.00 | 87 | 1004.0 |
| 20260509130717 | 13 | 201 | 4.8 | 12.9 | 0.00 | 0.00 | 0.00 | 87 | 1003.7 |
| 20260509130213 | 13 | 125 | 3.2 | 9.7 | 0.00 | 0.00 | 0.00 | 88 | 1003.6 |
| 20260509125710 | 13 | 178 | 4.8 | 9.7 | 0.00 | 0.00 | 0.00 | 89 | 1003.7 |
| 20260509125207 | 12 | 139 | 4.8 | 8.0 | 0.00 | 0.00 | 0.00 | 89 | 1003.7 |
| 20260509124703 | 12 | 175 | 4.8 | 9.7 | 0.00 | 0.00 | 0.00 | 90 | 1003.7 |
| 20260509124200 | 12 | 221 | 3.2 | 4.8 | 0.00 | 0.00 | 0.00 | 90 | 1003.7 |
| 20260509123659 | 12 | 163 | 1.6 | 3.2 | 0.00 | 0.00 | 0.00 | 91 | 1003.6 |
| 20260509123155 | 12 | 93 | 1.6 | 16.1 | 0.00 | 0.00 | 0.00 | 92 | 1003.7 |
| 20260509122650 | 12 | 169 | 8.0 | 12.9 | 0.00 | 0.00 | 0.00 | 93 | 1003.6 |
| 20260509122148 | 11 | 151 | 1.6 | 8.0 | 0.00 | 0.00 | 0.00 | 95 | 1003.7 |
| 20260509121644 | 11 | 202 | 8.0 | 9.7 | 0.00 | 0.00 | 0.00 | 96 | 1003.6 |
| 20260509121142 | 11 | 225 | 0.0 | 3.2 | 0.00 | 0.00 | 0.00 | 97 | 1003.7 |
| 20260509120640 | 11 | 323 | 6.4 | 9.7 | 0.00 | 0.00 | 0.00 | 97 | 1003.6 |
| 20260509120138 | 11 | 138 | 3.2 | 8.0 | 0.00 | 0.00 | 0.00 | 98 | 1003.7 |
| 20260509115635 | 10 | 280 | 3.2 | 8.0 | 0.00 | 0.00 | 0.00 | 98 | 1003.8 |
| 20260509115133 | 10 | 218 | 3.2 | 4.8 | 0.00 | 0.00 | 0.00 | 99 | 1003.8 |
| 20260509114631 | 10 | 144 | 1.6 | 4.8 | 0.00 | 0.00 | 0.00 | 99 | 1003.7 |
| 20260509114129 | 10 | 129 | 3.2 | 3.2 | 0.00 | 0.00 | 0.00 | 99 | 1003.7 |
| 20260509113628 | 10 | 153 | 1.6 | 3.2 | 0.00 | 0.00 | 0.00 | 99 | 1003.3 |
| 20260509113124 | 10 | 180 | 1.6 | 4.8 | 0.00 | 0.00 | 0.00 | 99 | 1003.5 |
| 20260509112621 | 10 | 162 | 1.6 | 3.2 | 0.00 | 0.00 | 0.00 | 99 | 1003.3 |
| 20260509112118 | 10 | 171 | 1.6 | 3.2 | 0.00 | 0.00 | 0.00 | 99 | 1003.3 |
| 20260509111615 | 10 | 114 | 1.6 | 3.2 | 0.00 | 0.00 | 0.00 | 99 | 1003.1 |
| 20260509111112 | 10 | 132 | 1.6 | 3.2 | 0.00 | 0.00 | 0.00 | 99 | 1003.2 |
| 20260509110609 | 10 | 102 | 0.0 | 1.6 | 0.00 | 0.00 | 0.00 | 99 | 1003.2 |
| 20260509110106 | 10 | 105 | 0.0 | 3.2 | 0.00 | 0.00 | 0.00 | 98 | 1003.6 |
| 20260509105604 | 10 | 160 | 1.6 | 3.2 | 0.00 | 0.00 | 0.00 | 98 | 1003.5 |
| 20260509105101 | 10 | 119 | 0.0 | 3.2 | 0.00 | 0.00 | 0.00 | 98 | 1003.4 |
| 20260509104558 | 10 | 190 | 3.2 | 8.0 | 0.00 | 0.00 | 0.00 | 98 | 1003.2 |
| 20260509104055 | 10 | 146 | 1.6 | 4.8 | 0.00 | 0.00 | 0.00 | 98 | 1003.3 |
| 20260509103553 | 10 | 165 | 1.6 | 3.2 | 0.00 | 0.00 | 0.00 | 98 | 1003.2 |
| 20260509103051 | 10 | 139 | 1.6 | 4.8 | 0.00 | 0.00 | 0.00 | 98 | 1003.1 |
| 20260509102548 | 10 | 79 | 1.6 | 3.2 | 0.00 | 0.00 | 0.00 | 98 | 1003.0 |
| 20260509102045 | 10 | 104 | 0.0 | 3.2 | 0.00 | 0.00 | 0.00 | 98 | 1003.0 |
| 20260509101541 | 10 | 108 | 1.6 | 4.8 | 0.00 | 0.00 | 0.00 | 98 | 1002.9 |
| 20260509101038 | 10 | 108 | 0.0 | 1.6 | 0.00 | 0.00 | 0.00 | 98 | 1003.0 |
| 20260509100535 | 10 | 115 | 1.6 | 1.6 | 0.00 | 0.00 | 0.00 | 98 | 1002.9 |
| 20260509100032 | 10 | 133 | 0.0 | 0.0 | 0.00 | 0.00 | 0.00 | 98 | 1003.1 |
| 20260509095529 | 10 | 192 | 1.6 | 3.2 | 0.00 | 0.00 | 0.00 | 98 | 1003.2 |
| 20260509095027 | 10 | 117 | 0.0 | 3.2 | 0.00 | 0.00 | 0.00 | 98 | 1003.2 |
| 20260509094522 | 10 | 124 | 0.0 | 4.8 | 0.00 | 0.00 | 0.00 | 98 | 1003.5 |
| 20260509094020 | 10 | 133 | 0.0 | 3.2 | 0.00 | 0.00 | 0.00 | 98 | 1003.5 |
| 20260509093518 | 10 | 202 | 0.0 | 3.2 | 0.00 | 0.00 | 0.00 | 98 | 1003.4 |
| 20260509093015 | 10 | 153 | 1.6 | 1.6 | 0.00 | 0.00 | 0.00 | 98 | 1003.5 |
| 20260509092513 | 10 | 109 | 0.0 | 3.2 | 0.00 | 0.00 | 0.00 | 98 | 1003.5 |
| 20260509092012 | 10 | 117 | 0.0 | 0.0 | 0.00 | 0.00 | 0.00 | 98 | 1003.5 |
| 20260509091508 | 10 | 185 | 1.6 | 3.2 | 0.00 | 0.00 | 0.00 | 98 | 1003.8 |
| 20260509091005 | 10 | 142 | 1.6 | 3.2 | 0.00 | 0.00 | 0.00 | 98 | 1003.7 |
| 20260509090502 | 10 | 113 | 1.6 | 3.2 | 0.00 | 0.00 | 0.00 | 98 | 1003.7 |
| 20260509090000 | 10 | 151 | 1.6 | 3.2 | 0.00 | 0.00 | 0.00 | 98 | 1003.9 |
| 20260509085457 | 10 | 273 | 3.2 | 4.8 | 0.00 | 0.00 | 0.00 | 97 | 1003.7 |
| 20260509084953 | 10 | 101 | 1.6 | 3.2 | 0.00 | 0.00 | 0.00 | 97 | 1003.6 |
| 20260509084450 | 10 | 188 | 1.6 | 3.2 | 0.00 | 0.00 | 0.00 | 97 | 1003.8 |
| 20260509083947 | 10 | 236 | 1.6 | 8.0 | 0.00 | 0.00 | 0.00 | 97 | 1003.6 |
| 20260509083445 | 10 | 136 | 1.6 | 1.6 | 0.00 | 0.00 | 0.00 | 97 | 1003.7 |
| 20260509082941 | 10 | 156 | 1.6 | 3.2 | 0.00 | 0.00 | 0.00 | 97 | 1003.8 |
| 20260509082438 | 10 | 117 | 1.6 | 3.2 | 0.00 | 0.00 | 0.00 | 97 | 1003.8 |
| 20260509081935 | 10 | 134 | 1.6 | 3.2 | 0.00 | 0.00 | 0.00 | 96 | 1003.7 |
| 20260509081427 | 10 | 101 | 1.6 | 3.2 | 0.00 | 0.00 | 0.00 | 96 | 1003.8 |
| 20260509080924 | 10 | 140 | 1.6 | 3.2 | 0.00 | 0.00 | 0.00 | 95 | 1003.9 |
| 20260509080422 | 10 | 131 | 0.0 | 1.6 | 0.00 | 0.00 | 0.00 | 95 | 1003.5 |
| 20260509075920 | 10 | 152 | 0.0 | 1.6 | 0.00 | 0.00 | 0.00 | 95 | 1003.8 |
| 20260509075416 | 11 | 133 | 0.0 | 3.2 | 0.00 | 0.00 | 0.00 | 95 | 1003.8 |
| 20260509074914 | 11 | 102 | 0.0 | 0.0 | 0.00 | 0.00 | 0.00 | 94 | 1003.9 |
| 20260509074412 | 11 | 100 | 0.0 | 1.6 | 0.00 | 0.00 | 0.00 | 94 | 1003.7 |
| 20260509073908 | 11 | 115 | 0.0 | 0.0 | 0.00 | 0.00 | 0.00 | 93 | 1004.0 |
| 20260509073404 | 11 | 115 | 0.0 | 0.0 | 0.00 | 0.00 | 0.00 | 93 | 1003.8 |
| 20260509072901 | 11 | 149 | 1.6 | 4.8 | 0.00 | 0.00 | 0.00 | 92 | 1004.1 |
| 20260509072357 | 11 | 155 | 0.0 | 3.2 | 0.00 | 0.00 | 0.00 | 92 | 1004.3 |
| 20260509071854 | 11 | 142 | 1.6 | 3.2 | 0.00 | 0.00 | 0.00 | 92 | 1004.0 |
| 20260509071351 | 11 | 120 | 3.2 | 4.8 | 0.00 | 0.00 | 0.00 | 92 | 1004.1 |
| 20260509070848 | 11 | 218 | 3.2 | 4.8 | 0.00 | 0.00 | 0.00 | 92 | 1004.0 |
| 20260509070345 | 11 | 230 | 3.2 | 3.2 | 0.00 | 0.00 | 0.00 | 92 | 1004.3 |
| 20260509065841 | 11 | 164 | 3.2 | 3.2 | 0.00 | 0.00 | 0.00 | 91 | 1004.6 |
| 20260509065337 | 11 | 180 | 1.6 | 4.8 | 0.00 | 0.00 | 0.00 | 91 | 1004.4 |
| 20260509064833 | 11 | 159 | 1.6 | 3.2 | 0.00 | 0.00 | 0.00 | 91 | 1004.5 |
| 20260509064331 | 12 | 228 | 3.2 | 3.2 | 0.00 | 0.00 | 0.00 | 91 | 1004.6 |
| 20260509063829 | 12 | 138 | 1.6 | 3.2 | 0.00 | 0.00 | 0.00 | 90 | 1004.8 |
| 20260509063324 | 12 | 126 | 1.6 | 4.8 | 0.00 | 0.00 | 0.00 | 90 | 1004.7 |
| 20260509062822 | 12 | 203 | 4.8 | 9.7 | 0.00 | 0.00 | 0.00 | 90 | 1004.6 |
| 20260509062319 | 12 | 133 | 1.6 | 4.8 | 0.00 | 0.00 | 0.00 | 90 | 1004.6 |
| 20260509061816 | 12 | 253 | 3.2 | 4.8 | 0.00 | 0.00 | 0.00 | 90 | 1004.8 |
| 20260509061314 | 12 | 101 | 3.2 | 4.8 | 0.00 | 0.00 | 0.00 | 90 | 1004.8 |
| 20260509060811 | 12 | 139 | 1.6 | 3.2 | 0.00 | 0.00 | 0.00 | 90 | 1005.0 |
| 20260509060308 | 12 | 251 | 0.0 | 8.0 | 0.00 | 0.00 | 0.00 | 89 | 1005.1 |
| 20260509055803 | 12 | 147 | 1.6 | 8.0 | 0.00 | 0.00 | 0.00 | 90 | 1004.9 |
| 20260509055259 | 12 | 118 | 0.0 | 3.2 | 0.00 | 0.00 | 0.00 | 89 | 1005.0 |
| 20260509054755 | 12 | 143 | 1.6 | 8.0 | 0.00 | 0.00 | 0.00 | 89 | 1005.0 |
| 20260509054252 | 12 | 181 | 1.6 | 4.8 | 0.00 | 0.00 | 0.00 | 89 | 1005.1 |
| 20260509053751 | 12 | 159 | 6.4 | 9.7 | 0.00 | 0.00 | 0.00 | 90 | 1005.2 |
| 20260509053248 | 12 | 254 | 1.6 | 4.8 | 0.00 | 0.00 | 0.00 | 90 | 1005.1 |
| 20260509052746 | 12 | 174 | 1.6 | 4.8 | 0.00 | 0.00 | 0.00 | 90 | 1005.2 |
| 20260509052243 | 12 | 96 | 3.2 | 8.0 | 0.00 | 0.00 | 0.00 | 90 | 1005.3 |
| 20260509051740 | 12 | 171 | 3.2 | 4.8 | 0.00 | 0.00 | 0.00 | 90 | 1005.4 |
| 20260509051239 | 12 | 172 | 3.2 | 4.8 | 0.00 | 0.00 | 0.00 | 89 | 1005.0 |
| 20260509050735 | 12 | 97 | 0.0 | 4.8 | 0.00 | 0.00 | 0.00 | 89 | 1005.0 |
| 20260509050231 | 12 | 245 | 3.2 | 3.2 | 0.00 | 0.00 | 0.00 | 89 | 1004.9 |
| 20260509045729 | 12 | 136 | 4.8 | 8.0 | 0.00 | 0.00 | 0.00 | 89 | 1005.0 |
| 20260509045225 | 12 | 143 | 1.6 | 3.2 | 0.00 | 0.00 | 0.00 | 88 | 1005.2 |
| 20260509044723 | 12 | 259 | 3.2 | 4.8 | 0.00 | 0.00 | 0.00 | 87 | 1005.0 |
| 20260509044221 | 13 | 320 | 3.2 | 3.2 | 0.00 | 0.00 | 0.00 | 87 | 1005.1 |
| 20260509043716 | 13 | 192 | 4.8 | 8.0 | 0.00 | 0.00 | 0.00 | 86 | 1005.1 |
| 20260509043213 | 13 | 109 | 3.2 | 4.8 | 0.00 | 0.00 | 0.00 | 86 | 1005.1 |
| 20260509042709 | 13 | 45 | 3.2 | 4.8 | 0.00 | 0.00 | 0.00 | 85 | 1005.2 |
| 20260509042205 | 13 | 260 | 6.4 | 8.0 | 0.00 | 0.00 | 0.00 | 84 | 1005.3 |
| 20260509041702 | 13 | 29 | 1.6 | 3.2 | 0.00 | 0.00 | 0.00 | 84 | 1005.2 |
| 20260509041200 | 13 | 107 | 1.6 | 3.2 | 0.00 | 0.00 | 0.00 | 83 | 1005.2 |
| 20260509040658 | 13 | 257 | 3.2 | 4.8 | 0.00 | 0.00 | 0.00 | 82 | 1005.3 |
| 20260509040154 | 13 | 123 | 0.0 | 3.2 | 0.00 | 0.00 | 0.00 | 81 | 1005.2 |
| 20260509035651 | 13 | 174 | 1.6 | 4.8 | 0.00 | 0.00 | 0.00 | 80 | 1005.1 |
| 20260509035148 | 14 | 174 | 4.8 | 8.0 | 0.00 | 0.00 | 0.00 | 79 | 1005.4 |
| 20260509034645 | 13 | 218 | 4.8 | 12.9 | 0.00 | 0.00 | 0.00 | 78 | 1005.4 |
| 20260509034142 | 14 | 249 | 3.2 | 9.7 | 0.00 | 0.00 | 0.00 | 77 | 1005.5 |
| 20260509033639 | 14 | 169 | 6.4 | 9.7 | 0.00 | 0.00 | 0.00 | 76 | 1005.2 |
| 20260509033136 | 14 | 321 | 3.2 | 8.0 | 0.00 | 0.00 | 0.00 | 76 | 1005.3 |
| 20260509032634 | 14 | 311 | 4.8 | 11.3 | 0.00 | 0.00 | 0.00 | 75 | 1005.3 |
| 20260509032130 | 14 | 251 | 6.4 | 9.7 | 0.00 | 0.00 | 0.00 | 75 | 1005.3 |
| 20260509031628 | 14 | 231 | 3.2 | 4.8 | 0.00 | 0.00 | 0.00 | 75 | 1005.3 |
| 20260509031125 | 14 | 292 | 4.8 | 4.8 | 0.00 | 0.00 | 0.00 | 75 | 1005.4 |
| 20260509030624 | 15 | 163 | 4.8 | 4.8 | 0.00 | 0.00 | 0.00 | 75 | 1005.4 |
| 20260509030120 | 15 | 138 | 1.6 | 3.2 | 0.00 | 0.00 | 0.00 | 74 | 1005.4 |
| 20260509025616 | 15 | 241 | 4.8 | 4.8 | 0.00 | 0.00 | 0.00 | 73 | 1005.2 |
| 20260509025112 | 15 | 115 | 3.2 | 8.0 | 0.00 | 0.00 | 0.00 | 72 | 1005.4 |
| 20260509024608 | 15 | 160 | 3.2 | 8.0 | 0.00 | 0.00 | 0.00 | 71 | 1005.4 |
| 20260509024104 | 15 | 118 | 3.2 | 8.0 | 0.00 | 0.00 | 0.00 | 70 | 1005.5 |
| 20260509023602 | 15 | 251 | 4.8 | 8.0 | 0.00 | 0.00 | 0.00 | 67 | 1005.3 |
| 20260509023059 | 15 | 310 | 3.2 | 3.2 | 0.00 | 0.00 | 0.00 | 65 | 1005.2 |
| 20260509022555 | 15 | 131 | 1.6 | 3.2 | 0.00 | 0.00 | 0.00 | 63 | 1005.2 |
| 20260509022053 | 15 | 265 | 1.6 | 3.2 | 0.00 | 0.00 | 0.00 | 63 | 1005.4 |
| 20260509021550 | 15 | 82 | 0.0 | 1.6 | 0.00 | 0.00 | 0.00 | 63 | 1005.3 |
| 20260509021047 | 15 | 100 | 0.0 | 1.6 | 0.00 | 0.00 | 0.00 | 62 | 1005.4 |
| 20260509020545 | 15 | 161 | 3.2 | 3.2 | 0.00 | 0.00 | 0.00 | 61 | 1005.0 |
| 20260509020042 | 15 | 120 | 0.0 | 3.2 | 0.00 | 0.00 | 0.00 | 61 | 1005.3 |
| 20260509015541 | 15 | 125 | 0.0 | 0.0 | 0.00 | 0.00 | 0.00 | 61 | 1005.3 |
| 20260509015037 | 16 | 141 | 0.0 | 1.6 | 0.00 | 0.00 | 0.00 | 60 | 1005.0 |
| 20260509014534 | 16 | 113 | 0.0 | 4.8 | 0.00 | 0.00 | 0.00 | 60 | 1005.2 |
| 20260509014030 | 16 | 125 | 0.0 | 1.6 | 0.00 | 0.00 | 0.00 | 59 | 1005.2 |
| 20260509013528 | 16 | 118 | 0.0 | 1.6 | 0.00 | 0.00 | 0.00 | 59 | 1005.0 |
| 20260509013023 | 16 | 112 | 0.0 | 3.2 | 0.00 | 0.00 | 0.00 | 59 | 1005.1 |
| 20260509012520 | 16 | 104 | 0.0 | 1.6 | 0.00 | 0.00 | 0.00 | 59 | 1005.3 |
| 20260509012017 | 16 | 126 | 1.6 | 1.6 | 0.00 | 0.00 | 0.00 | 58 | 1005.1 |
| 20260509011515 | 16 | 147 | 1.6 | 3.2 | 0.00 | 0.00 | 0.00 | 58 | 1005.1 |
| 20260509011012 | 17 | 137 | 1.6 | 3.2 | 0.00 | 0.00 | 0.00 | 57 | 1004.9 |
| 20260509010509 | 17 | 151 | 1.6 | 3.2 | 0.00 | 0.00 | 0.00 | 56 | 1004.9 |
| 20260509010005 | 17 | 118 | 1.6 | 8.0 | 0.00 | 0.00 | 0.00 | 55 | 1004.9 |
| 20260509005504 | 17 | 120 | 3.2 | 9.7 | 0.00 | 0.00 | 0.00 | 54 | 1004.9 |
| 20260509004958 | 17 | 228 | 1.6 | 8.0 | 0.00 | 0.00 | 0.00 | 55 | 1004.9 |
| 20260509004455 | 17 | 187 | 3.2 | 4.8 | 0.00 | 0.00 | 0.00 | 55 | 1005.0 |
| 20260509003952 | 17 | 146 | 3.2 | 8.0 | 0.00 | 0.00 | 0.00 | 54 | 1005.1 |
| 20260509003451 | 17 | 188 | 3.2 | 3.2 | 0.00 | 0.00 | 0.00 | 54 | 1005.1 |
| 20260509002947 | 18 | 125 | 3.2 | 8.0 | 0.00 | 0.00 | 0.00 | 53 | 1005.0 |
| 20260509002445 | 18 | 211 | 3.2 | 4.8 | 0.00 | 0.00 | 0.00 | 52 | 1005.2 |
| 20260509001942 | 18 | 206 | 1.6 | 4.8 | 0.00 | 0.00 | 0.00 | 52 | 1005.2 |
| 20260509001438 | 18 | 224 | 8.0 | 11.3 | 0.00 | 0.00 | 0.00 | 52 | 1005.2 |
| 20260509000935 | 18 | 195 | 1.6 | 4.8 | 0.00 | 0.00 | 0.00 | 51 | 1005.3 |
| 20260509000434 | 18 | 109 | 0.0 | 8.0 | 0.00 | 0.00 | 0.00 | 51 | 1005.4 |
| 20260508235929 | 18 | 124 | 0.0 | 1.6 | 0.00 | 0.00 | 0.00 | 52 | 1005.1 |
| 20260508235427 | 18 | 126 | 1.6 | 1.6 | 0.00 | 0.00 | 0.00 | 51 | 1005.1 |
| 20260508234923 | 18 | 174 | 1.6 | 3.2 | 0.00 | 0.00 | 0.00 | 52 | 1005.4 |
| 20260508234420 | 18 | 197 | 1.6 | 3.2 | 0.00 | 0.00 | 0.00 | 51 | 1005.3 |
| 20260508233918 | 18 | 127 | 3.2 | 3.2 | 0.00 | 0.00 | 0.00 | 49 | 1005.4 |
| 20260508233417 | 18 | 118 | 4.8 | 11.3 | 0.00 | 0.00 | 0.00 | 50 | 1005.3 |
| 20260508232914 | 18 | 106 | 0.0 | 1.6 | 0.00 | 0.00 | 0.00 | 51 | 1005.2 |
| 20260508232410 | 18 | 105 | 1.6 | 1.6 | 0.00 | 0.00 | 0.00 | 49 | 1005.5 |
| 20260508231908 | 18 | 138 | 4.8 | 4.8 | 0.00 | 0.00 | 0.00 | 48 | 1005.1 |